Cle Elum, WA (98922)

3:24 AM PST on November 23, 2014 (GMT -0800)
Cle Elum-Roslyn High School | Change Station
CLOSE
Current Station
Personal Weather Station
Location: Cle Elum, WA
Elevation: 2107 ft
Nearby Weather Stations

Elev 2107 ft 47.20 °N, 120.97 °W | Updated 6 minutes ago

Partly Cloudy
Partly Cloudy
37.3 °F
Feels Like 37 °F
N
1.0
Wind Variable Wind from NNW

Today
High -- | Low -- °F
--% Chance of Precip.
Yesterday
High -- | Low -- °F
Precip. -- in
7:19 AM 4:20 PM
New Moon, 1% visible
Pressure 30.11 in
Visibility 10.0 miles
Clouds Clear
Windchill 37 °F
Dew Point 36 °F
Humidity 95%
Rainfall 0.02 in
Snow Depth Not available.
UV 0.0 out of 12
Pollen .10 out of 12
Air Quality Not available.
Flu Activity Not available.
METAR KELN 231053Z AUTO 28012KT 10SM CLR 04/01 A3008 RMK AO2 SLP196 T00440006

More Conditions Fewer Conditions

Pressure 30.11 in
Visibility 10.0 miles
Clouds Clear
Windchill 37 °F
Dew Point 36 °F
Humidity 95%
Rainfall 0.02 in
Snow Depth Not available.
UV 0.0 out of 12
Pollen .10 out of 12
Air Quality Not available.
Flu Activity Not available.
METAR KELN 231053Z AUTO 28012KT 10SM CLR 04/01 A3008 RMK AO2 SLP196 T00440006

More Conditions Fewer Conditions

10-Day Weather Forecast

Almanac

Astronomy

Nov. 23, 2014 Rise Set
Actual Time
Civil Twilight
Nautical Twilight
Astronomical Twilight
Moon
Length of Visible Light
Length of Day
Tomorrow will be .
, % of the Moon is Illuminated

Today's Extremes

State Highs State Lows

Community

WunderPhotos

Upload Photos

1,773,036 photos uploaded!

WunderBlogs® & News

Nearby

Air Quality

  Air Quality AQ Index Pollutant
Not available.

Snow Depth

Station Depth Elevation

Earthquake Activity

City Distance Mag. Time & Date
Minimum magnitude displayed is 2.5.

Coastal Water Temperatures

Place Temperature

Nearby Weather Stations